sensor_id;sensor_type;location;lat;lon;timestamp;P1;durP1;ratioP1;P2;durP2;ratioP2
6434;SDS011;3250;42.694;23.278;2023-02-08T00:01:15;31.50;;;14.10;;
6434;SDS011;3250;42.694;23.278;2023-02-08T00:03:42;28.73;;;14.02;;
6434;SDS011;3250;42.694;23.278;2023-02-08T00:06:08;25.10;;;11.23;;
6434;SDS011;3250;42.694;23.278;2023-02-08T00:08:34;31.58;;;14.85;;
6434;SDS011;3250;42.694;23.278;2023-02-08T00:11:01;31.30;;;12.87;;
6434;SDS011;3250;42.694;23.278;2023-02-08T00:13:27;44.33;;;17.00;;
6434;SDS011;3250;42.694;23.278;2023-02-08T00:15:53;40.95;;;16.50;;
6434;SDS011;3250;42.694;23.278;2023-02-08T00:18:19;30.17;;;14.75;;
6434;SDS011;3250;42.694;23.278;2023-02-08T00:20:45;26.80;;;13.45;;
6434;SDS011;3250;42.694;23.278;2023-02-08T00:23:11;34.63;;;15.70;;
6434;SDS011;3250;42.694;23.278;2023-02-08T00:25:37;26.30;;;13.52;;
6434;SDS011;3250;42.694;23.278;2023-02-08T00:28:04;20.53;;;11.37;;
6434;SDS011;3250;42.694;23.278;2023-02-08T00:30:30;22.40;;;11.35;;
6434;SDS011;3250;42.694;23.278;2023-02-08T00:32:55;28.07;;;11.90;;
6434;SDS011;3250;42.694;23.278;2023-02-08T00:35:21;31.48;;;13.90;;
6434;SDS011;3250;42.694;23.278;2023-02-08T00:37:46;31.00;;;14.10;;
6434;SDS011;3250;42.694;23.278;2023-02-08T00:40:12;31.87;;;15.90;;
6434;SDS011;3250;42.694;23.278;2023-02-08T00:42:37;27.48;;;14.57;;
6434;SDS011;3250;42.694;23.278;2023-02-08T00:45:03;32.60;;;14.40;;
6434;SDS011;3250;42.694;23.278;2023-02-08T00:47:29;27.08;;;13.88;;
6434;SDS011;3250;42.694;23.278;2023-02-08T00:49:54;24.08;;;11.98;;
6434;SDS011;3250;42.694;23.278;2023-02-08T00:52:20;31.07;;;15.07;;
6434;SDS011;3250;42.694;23.278;2023-02-08T00:54:45;24.07;;;13.07;;
6434;SDS011;3250;42.694;23.278;2023-02-08T00:57:11;23.13;;;11.30;;
6434;SDS011;3250;42.694;23.278;2023-02-08T00:59:37;29.17;;;11.20;;
6434;SDS011;3250;42.694;23.278;2023-02-08T01:02:02;24.65;;;12.23;;
6434;SDS011;3250;42.694;23.278;2023-02-08T01:04:28;23.93;;;11.57;;
6434;SDS011;3250;42.694;23.278;2023-02-08T01:06:53;28.37;;;10.83;;
6434;SDS011;3250;42.694;23.278;2023-02-08T01:09:19;22.30;;;12.40;;
6434;SDS011;3250;42.694;23.278;2023-02-08T01:11:44;20.73;;;10.47;;
6434;SDS011;3250;42.694;23.278;2023-02-08T01:14:09;30.93;;;12.10;;
6434;SDS011;3250;42.694;23.278;2023-02-08T01:16:35;29.80;;;14.60;;
6434;SDS011;3250;42.694;23.278;2023-02-08T01:19:01;25.60;;;12.00;;
6434;SDS011;3250;42.694;23.278;2023-02-08T01:21:28;30.30;;;13.32;;
6434;SDS011;3250;42.694;23.278;2023-02-08T01:23:56;25.50;;;12.53;;
6434;SDS011;3250;42.694;23.278;2023-02-08T01:26:22;24.80;;;11.10;;
6434;SDS011;3250;42.694;23.278;2023-02-08T01:28:50;29.52;;;14.82;;
6434;SDS011;3250;42.694;23.278;2023-02-08T01:31:21;25.95;;;14.00;;
6434;SDS011;3250;42.694;23.278;2023-02-08T01:33:52;27.63;;;12.57;;
6434;SDS011;3250;42.694;23.278;2023-02-08T01:36:18;26.58;;;13.77;;
6434;SDS011;3250;42.694;23.278;2023-02-08T01:38:44;29.53;;;15.17;;
6434;SDS011;3250;42.694;23.278;2023-02-08T01:41:17;22.97;;;11.77;;
6434;SDS011;3250;42.694;23.278;2023-02-08T01:46:27;23.85;;;13.13;;
6434;SDS011;3250;42.694;23.278;2023-02-08T01:48:53;23.48;;;12.85;;
6434;SDS011;3250;42.694;23.278;2023-02-08T01:51:24;22.93;;;12.03;;
6434;SDS011;3250;42.694;23.278;2023-02-08T01:53:52;26.23;;;12.20;;
6434;SDS011;3250;42.694;23.278;2023-02-08T01:56:27;24.23;;;13.32;;
6434;SDS011;3250;42.694;23.278;2023-02-08T01:58:56;26.87;;;12.47;;
6434;SDS011;3250;42.694;23.278;2023-02-08T02:01:29;22.13;;;10.70;;
6434;SDS011;3250;42.694;23.278;2023-02-08T02:03:56;28.50;;;12.77;;
6434;SDS011;3250;42.694;23.278;2023-02-08T02:06:27;27.00;;;11.67;;
6434;SDS011;3250;42.694;23.278;2023-02-08T02:09:09;22.37;;;12.33;;
6434;SDS011;3250;42.694;23.278;2023-02-08T02:11:42;25.83;;;13.88;;
6434;SDS011;3250;42.694;23.278;2023-02-08T02:14:08;25.77;;;11.03;;
6434;SDS011;3250;42.694;23.278;2023-02-08T02:16:34;24.33;;;12.03;;
6434;SDS011;3250;42.694;23.278;2023-02-08T02:19:00;22.37;;;11.90;;
6434;SDS011;3250;42.694;23.278;2023-02-08T02:24:36;25.40;;;12.70;;
6434;SDS011;3250;42.694;23.278;2023-02-08T02:27:26;27.47;;;11.67;;
6434;SDS011;3250;42.694;23.278;2023-02-08T02:43:42;23.30;;;13.07;;
6434;SDS011;3250;42.694;23.278;2023-02-08T02:49:26;25.93;;;12.80;;
6434;SDS011;3250;42.694;23.278;2023-02-08T02:51:56;23.40;;;11.27;;
6434;SDS011;3250;42.694;23.278;2023-02-08T02:57:29;31.67;;;15.88;;
6434;SDS011;3250;42.694;23.278;2023-02-08T02:59:56;28.55;;;14.98;;
6434;SDS011;3250;42.694;23.278;2023-02-08T03:02:23;31.07;;;14.47;;
6434;SDS011;3250;42.694;23.278;2023-02-08T03:04:52;31.93;;;13.03;;
6434;SDS011;3250;42.694;23.278;2023-02-08T03:12:38;29.00;;;14.27;;
6434;SDS011;3250;42.694;23.278;2023-02-08T03:25:35;25.27;;;12.53;;
6434;SDS011;3250;42.694;23.278;2023-02-08T03:31:04;28.43;;;14.90;;
6434;SDS011;3250;42.694;23.278;2023-02-08T03:33:38;25.60;;;14.03;;
6434;SDS011;3250;42.694;23.278;2023-02-08T03:36:25;24.90;;;13.13;;
6434;SDS011;3250;42.694;23.278;2023-02-08T03:38:57;24.37;;;13.37;;
6434;SDS011;3250;42.694;23.278;2023-02-08T03:41:28;31.75;;;16.08;;
6434;SDS011;3250;42.694;23.278;2023-02-08T03:44:03;32.63;;;15.20;;
6434;SDS011;3250;42.694;23.278;2023-02-08T03:46:34;28.70;;;13.63;;
6434;SDS011;3250;42.694;23.278;2023-02-08T03:49:09;31.07;;;13.30;;
6434;SDS011;3250;42.694;23.278;2023-02-08T03:51:41;30.40;;;14.17;;
6434;SDS011;3250;42.694;23.278;2023-02-08T03:54:09;22.60;;;12.30;;
6434;SDS011;3250;42.694;23.278;2023-02-08T03:56:42;29.88;;;15.23;;
6434;SDS011;3250;42.694;23.278;2023-02-08T03:59:17;29.97;;;16.30;;
6434;SDS011;3250;42.694;23.278;2023-02-08T04:01:52;26.13;;;13.73;;
6434;SDS011;3250;42.694;23.278;2023-02-08T04:04:24;25.80;;;12.70;;
6434;SDS011;3250;42.694;23.278;2023-02-08T04:06:51;27.90;;;12.70;;
6434;SDS011;3250;42.694;23.278;2023-02-08T04:09:17;29.30;;;13.87;;
6434;SDS011;3250;42.694;23.278;2023-02-08T04:11:43;24.57;;;13.07;;
6434;SDS011;3250;42.694;23.278;2023-02-08T04:14:08;28.43;;;13.27;;
6434;SDS011;3250;42.694;23.278;2023-02-08T04:16:33;25.60;;;12.37;;
6434;SDS011;3250;42.694;23.278;2023-02-08T04:18:59;30.70;;;13.37;;
6434;SDS011;3250;42.694;23.278;2023-02-08T04:21:24;26.03;;;12.30;;
6434;SDS011;3250;42.694;23.278;2023-02-08T04:23:51;29.20;;;12.93;;
6434;SDS011;3250;42.694;23.278;2023-02-08T04:26:16;27.47;;;12.80;;
6434;SDS011;3250;42.694;23.278;2023-02-08T04:28:41;26.97;;;13.23;;
6434;SDS011;3250;42.694;23.278;2023-02-08T04:31:07;26.83;;;12.90;;
6434;SDS011;3250;42.694;23.278;2023-02-08T04:33:32;24.53;;;11.83;;
6434;SDS011;3250;42.694;23.278;2023-02-08T04:35:57;23.57;;;11.60;;
6434;SDS011;3250;42.694;23.278;2023-02-08T04:38:23;24.73;;;12.20;;
6434;SDS011;3250;42.694;23.278;2023-02-08T04:40:49;24.90;;;11.50;;
6434;SDS011;3250;42.694;23.278;2023-02-08T04:43:14;27.83;;;13.33;;
6434;SDS011;3250;42.694;23.278;2023-02-08T04:45:39;28.00;;;11.87;;
6434;SDS011;3250;42.694;23.278;2023-02-08T04:48:05;34.33;;;15.93;;
6434;SDS011;3250;42.694;23.278;2023-02-08T04:50:31;28.80;;;13.67;;
6434;SDS011;3250;42.694;23.278;2023-02-08T04:52:57;25.57;;;13.60;;
6434;SDS011;3250;42.694;23.278;2023-02-08T04:55:22;29.30;;;14.10;;
6434;SDS011;3250;42.694;23.278;2023-02-08T04:57:48;27.23;;;12.83;;
6434;SDS011;3250;42.694;23.278;2023-02-08T05:00:13;26.13;;;12.33;;
6434;SDS011;3250;42.694;23.278;2023-02-08T05:02:39;32.43;;;16.33;;
6434;SDS011;3250;42.694;23.278;2023-02-08T05:05:04;29.53;;;13.40;;
6434;SDS011;3250;42.694;23.278;2023-02-08T05:07:30;28.63;;;13.00;;
6434;SDS011;3250;42.694;23.278;2023-02-08T05:09:56;31.60;;;15.57;;
6434;SDS011;3250;42.694;23.278;2023-02-08T05:12:21;32.10;;;15.50;;
6434;SDS011;3250;42.694;23.278;2023-02-08T05:14:47;29.40;;;14.07;;
6434;SDS011;3250;42.694;23.278;2023-02-08T05:17:12;26.70;;;13.00;;
6434;SDS011;3250;42.694;23.278;2023-02-08T05:19:38;33.50;;;13.80;;
6434;SDS011;3250;42.694;23.278;2023-02-08T05:22:03;42.93;;;18.23;;
6434;SDS011;3250;42.694;23.278;2023-02-08T05:24:29;48.97;;;22.40;;
6434;SDS011;3250;42.694;23.278;2023-02-08T05:26:54;46.77;;;22.80;;
6434;SDS011;3250;42.694;23.278;2023-02-08T05:29:19;50.47;;;24.33;;
6434;SDS011;3250;42.694;23.278;2023-02-08T05:31:45;70.93;;;31.67;;
6434;SDS011;3250;42.694;23.278;2023-02-08T05:34:10;79.10;;;38.63;;
6434;SDS011;3250;42.694;23.278;2023-02-08T05:36:36;82.73;;;40.13;;
6434;SDS011;3250;42.694;23.278;2023-02-08T05:39:02;85.40;;;39.43;;
6434;SDS011;3250;42.694;23.278;2023-02-08T05:41:28;74.87;;;36.43;;
6434;SDS011;3250;42.694;23.278;2023-02-08T05:43:54;88.33;;;39.20;;
6434;SDS011;3250;42.694;23.278;2023-02-08T05:46:19;74.27;;;37.80;;
6434;SDS011;3250;42.694;23.278;2023-02-08T05:48:44;82.53;;;39.20;;
6434;SDS011;3250;42.694;23.278;2023-02-08T05:51:10;100.03;;;40.63;;
6434;SDS011;3250;42.694;23.278;2023-02-08T05:53:35;87.47;;;39.20;;
6434;SDS011;3250;42.694;23.278;2023-02-08T05:56:01;94.47;;;42.30;;
6434;SDS011;3250;42.694;23.278;2023-02-08T05:58:27;90.23;;;42.00;;
6434;SDS011;3250;42.694;23.278;2023-02-08T06:00:53;99.37;;;45.43;;
6434;SDS011;3250;42.694;23.278;2023-02-08T06:03:18;109.23;;;49.73;;
6434;SDS011;3250;42.694;23.278;2023-02-08T06:05:44;116.10;;;53.27;;
6434;SDS011;3250;42.694;23.278;2023-02-08T06:08:09;113.27;;;53.90;;
6434;SDS011;3250;42.694;23.278;2023-02-08T06:10:35;119.10;;;52.57;;
6434;SDS011;3250;42.694;23.278;2023-02-08T06:13:01;126.60;;;52.20;;
6434;SDS011;3250;42.694;23.278;2023-02-08T06:15:27;125.60;;;52.63;;
6434;SDS011;3250;42.694;23.278;2023-02-08T06:17:53;166.03;;;66.93;;
6434;SDS011;3250;42.694;23.278;2023-02-08T06:20:18;167.67;;;70.17;;
6434;SDS011;3250;42.694;23.278;2023-02-08T06:22:43;141.80;;;58.67;;
6434;SDS011;3250;42.694;23.278;2023-02-08T06:25:09;115.33;;;51.93;;
6434;SDS011;3250;42.694;23.278;2023-02-08T06:27:35;130.67;;;56.77;;
6434;SDS011;3250;42.694;23.278;2023-02-08T06:30:00;130.00;;;55.20;;
6434;SDS011;3250;42.694;23.278;2023-02-08T06:32:26;129.47;;;55.03;;
6434;SDS011;3250;42.694;23.278;2023-02-08T06:34:51;131.60;;;55.33;;
6434;SDS011;3250;42.694;23.278;2023-02-08T06:37:17;121.70;;;53.67;;
6434;SDS011;3250;42.694;23.278;2023-02-08T06:39:43;117.13;;;50.87;;
6434;SDS011;3250;42.694;23.278;2023-02-08T06:42:08;108.00;;;47.83;;
6434;SDS011;3250;42.694;23.278;2023-02-08T06:44:35;65.40;;;34.90;;
6434;SDS011;3250;42.694;23.278;2023-02-08T06:47:00;68.90;;;34.93;;
6434;SDS011;3250;42.694;23.278;2023-02-08T06:49:26;55.20;;;26.07;;
6434;SDS011;3250;42.694;23.278;2023-02-08T06:51:51;35.83;;;17.60;;
6434;SDS011;3250;42.694;23.278;2023-02-08T06:54:17;28.83;;;14.77;;
6434;SDS011;3250;42.694;23.278;2023-02-08T06:56:42;27.10;;;12.03;;
6434;SDS011;3250;42.694;23.278;2023-02-08T06:59:08;19.43;;;11.87;;
6434;SDS011;3250;42.694;23.278;2023-02-08T07:01:33;26.87;;;14.33;;
6434;SDS011;3250;42.694;23.278;2023-02-08T07:03:59;30.40;;;15.60;;
6434;SDS011;3250;42.694;23.278;2023-02-08T07:06:24;28.27;;;14.73;;
6434;SDS011;3250;42.694;23.278;2023-02-08T07:08:49;31.23;;;16.30;;
6434;SDS011;3250;42.694;23.278;2023-02-08T07:11:16;34.87;;;16.77;;
6434;SDS011;3250;42.694;23.278;2023-02-08T07:13:45;26.20;;;13.07;;
6434;SDS011;3250;42.694;23.278;2023-02-08T07:16:14;25.93;;;13.43;;
6434;SDS011;3250;42.694;23.278;2023-02-08T07:18:40;28.20;;;14.37;;
6434;SDS011;3250;42.694;23.278;2023-02-08T07:21:05;24.37;;;12.43;;
6434;SDS011;3250;42.694;23.278;2023-02-08T07:23:31;21.53;;;11.53;;
6434;SDS011;3250;42.694;23.278;2023-02-08T07:25:57;20.97;;;11.50;;
6434;SDS011;3250;42.694;23.278;2023-02-08T07:28:23;22.63;;;10.60;;
6434;SDS011;3250;42.694;23.278;2023-02-08T07:30:48;16.80;;;10.23;;
6434;SDS011;3250;42.694;23.278;2023-02-08T07:33:14;16.57;;;9.37;;
6434;SDS011;3250;42.694;23.278;2023-02-08T07:35:39;16.67;;;9.90;;
6434;SDS011;3250;42.694;23.278;2023-02-08T07:38:04;20.17;;;10.73;;
6434;SDS011;3250;42.694;23.278;2023-02-08T07:40:30;18.00;;;10.17;;
6434;SDS011;3250;42.694;23.278;2023-02-08T07:42:56;17.13;;;9.73;;
6434;SDS011;3250;42.694;23.278;2023-02-08T07:45:22;19.67;;;10.30;;
6434;SDS011;3250;42.694;23.278;2023-02-08T07:47:47;17.63;;;8.47;;
6434;SDS011;3250;42.694;23.278;2023-02-08T07:50:13;18.80;;;9.63;;
6434;SDS011;3250;42.694;23.278;2023-02-08T07:52:40;16.87;;;9.23;;
6434;SDS011;3250;42.694;23.278;2023-02-08T07:55:08;18.93;;;9.93;;
6434;SDS011;3250;42.694;23.278;2023-02-08T07:57:35;16.93;;;9.80;;
6434;SDS011;3250;42.694;23.278;2023-02-08T08:00:01;16.57;;;10.30;;
6434;SDS011;3250;42.694;23.278;2023-02-08T08:02:27;17.23;;;9.90;;
6434;SDS011;3250;42.694;23.278;2023-02-08T08:04:52;17.80;;;9.90;;
6434;SDS011;3250;42.694;23.278;2023-02-08T08:07:18;21.87;;;12.47;;
6434;SDS011;3250;42.694;23.278;2023-02-08T08:09:44;18.63;;;10.17;;
6434;SDS011;3250;42.694;23.278;2023-02-08T08:12:09;17.03;;;9.40;;
6434;SDS011;3250;42.694;23.278;2023-02-08T08:14:34;16.63;;;8.90;;
6434;SDS011;3250;42.694;23.278;2023-02-08T08:17:00;13.93;;;8.37;;
6434;SDS011;3250;42.694;23.278;2023-02-08T08:19:25;17.57;;;8.70;;
6434;SDS011;3250;42.694;23.278;2023-02-08T08:21:51;15.67;;;8.90;;
6434;SDS011;3250;42.694;23.278;2023-02-08T08:24:16;20.63;;;10.83;;
6434;SDS011;3250;42.694;23.278;2023-02-08T08:26:41;20.67;;;10.83;;
6434;SDS011;3250;42.694;23.278;2023-02-08T08:29:07;17.10;;;9.90;;
6434;SDS011;3250;42.694;23.278;2023-02-08T08:31:33;18.73;;;9.73;;
6434;SDS011;3250;42.694;23.278;2023-02-08T08:33:58;20.33;;;12.00;;
6434;SDS011;3250;42.694;23.278;2023-02-08T08:36:24;22.07;;;11.90;;
6434;SDS011;3250;42.694;23.278;2023-02-08T08:38:50;17.67;;;10.40;;
6434;SDS011;3250;42.694;23.278;2023-02-08T08:41:15;24.13;;;11.67;;
6434;SDS011;3250;42.694;23.278;2023-02-08T08:43:42;17.20;;;10.03;;
6434;SDS011;3250;42.694;23.278;2023-02-08T08:46:08;19.53;;;9.80;;
6434;SDS011;3250;42.694;23.278;2023-02-08T08:48:34;20.20;;;11.47;;
6434;SDS011;3250;42.694;23.278;2023-02-08T08:51:00;18.60;;;10.23;;
6434;SDS011;3250;42.694;23.278;2023-02-08T08:53:26;20.53;;;10.30;;
6434;SDS011;3250;42.694;23.278;2023-02-08T08:55:52;17.40;;;10.23;;
6434;SDS011;3250;42.694;23.278;2023-02-08T08:58:17;22.67;;;11.43;;
6434;SDS011;3250;42.694;23.278;2023-02-08T09:00:42;19.13;;;11.17;;
6434;SDS011;3250;42.694;23.278;2023-02-08T09:03:08;28.80;;;12.80;;
6434;SDS011;3250;42.694;23.278;2023-02-08T09:05:33;21.57;;;11.93;;
6434;SDS011;3250;42.694;23.278;2023-02-08T09:07:59;23.23;;;11.10;;
6434;SDS011;3250;42.694;23.278;2023-02-08T09:10:25;20.60;;;11.33;;
6434;SDS011;3250;42.694;23.278;2023-02-08T09:12:51;18.43;;;9.57;;
6434;SDS011;3250;42.694;23.278;2023-02-08T09:15:17;18.40;;;9.40;;
6434;SDS011;3250;42.694;23.278;2023-02-08T09:17:42;20.60;;;10.80;;
6434;SDS011;3250;42.694;23.278;2023-02-08T09:20:08;16.53;;;9.03;;
6434;SDS011;3250;42.694;23.278;2023-02-08T09:22:34;20.80;;;9.90;;
6434;SDS011;3250;42.694;23.278;2023-02-08T09:24:59;15.00;;;8.53;;
6434;SDS011;3250;42.694;23.278;2023-02-08T09:27:26;19.93;;;9.30;;
6434;SDS011;3250;42.694;23.278;2023-02-08T09:29:52;17.10;;;9.30;;
6434;SDS011;3250;42.694;23.278;2023-02-08T09:32:18;20.83;;;9.03;;
6434;SDS011;3250;42.694;23.278;2023-02-08T09:34:45;17.50;;;8.67;;
6434;SDS011;3250;42.694;23.278;2023-02-08T09:37:10;17.47;;;8.63;;
6434;SDS011;3250;42.694;23.278;2023-02-08T09:39:36;22.00;;;10.77;;
6434;SDS011;3250;42.694;23.278;2023-02-08T09:47:33;15.37;;;8.27;;
6434;SDS011;3250;42.694;23.278;2023-02-08T09:50:20;18.73;;;8.77;;
6434;SDS011;3250;42.694;23.278;2023-02-08T09:55:52;14.30;;;7.43;;
6434;SDS011;3250;42.694;23.278;2023-02-08T09:58:29;14.30;;;7.07;;
6434;SDS011;3250;42.694;23.278;2023-02-08T10:01:00;12.37;;;6.87;;
6434;SDS011;3250;42.694;23.278;2023-02-08T10:03:28;15.40;;;8.27;;
6434;SDS011;3250;42.694;23.278;2023-02-08T10:05:58;15.50;;;8.07;;
6434;SDS011;3250;42.694;23.278;2023-02-08T10:08:23;13.43;;;7.07;;
6434;SDS011;3250;42.694;23.278;2023-02-08T10:10:53;14.53;;;7.37;;
6434;SDS011;3250;42.694;23.278;2023-02-08T10:18:49;11.03;;;6.37;;
6434;SDS011;3250;42.694;23.278;2023-02-08T10:29:21;12.80;;;6.03;;
6434;SDS011;3250;42.694;23.278;2023-02-08T10:35:14;10.20;;;5.87;;
6434;SDS011;3250;42.694;23.278;2023-02-08T10:37:43;12.40;;;5.70;;
6434;SDS011;3250;42.694;23.278;2023-02-08T10:40:25;8.50;;;5.10;;
6434;SDS011;3250;42.694;23.278;2023-02-08T10:43:02;11.40;;;5.77;;
6434;SDS011;3250;42.694;23.278;2023-02-08T10:49:07;16.27;;;6.80;;
6434;SDS011;3250;42.694;23.278;2023-02-08T10:51:19;12.60;;;6.43;;
6434;SDS011;3250;42.694;23.278;2023-02-08T10:53:45;13.50;;;5.83;;
6434;SDS011;3250;42.694;23.278;2023-02-08T10:56:30;10.73;;;6.27;;
6434;SDS011;3250;42.694;23.278;2023-02-08T10:59:23;11.00;;;5.70;;
6434;SDS011;3250;42.694;23.278;2023-02-08T11:01:51;12.90;;;5.57;;
6434;SDS011;3250;42.694;23.278;2023-02-08T11:04:18;15.17;;;6.07;;
6434;SDS011;3250;42.694;23.278;2023-02-08T11:06:45;10.50;;;5.23;;
6434;SDS011;3250;42.694;23.278;2023-02-08T11:09:45;12.27;;;6.47;;
6434;SDS011;3250;42.694;23.278;2023-02-08T11:12:03;12.83;;;6.67;;
6434;SDS011;3250;42.694;23.278;2023-02-08T11:14:31;16.77;;;6.27;;
6434;SDS011;3250;42.694;23.278;2023-02-08T11:17:02;9.80;;;5.97;;
6434;SDS011;3250;42.694;23.278;2023-02-08T11:22:19;13.47;;;6.87;;
6434;SDS011;3250;42.694;23.278;2023-02-08T11:24:57;11.80;;;6.43;;
6434;SDS011;3250;42.694;23.278;2023-02-08T11:32:37;10.03;;;6.77;;
6434;SDS011;3250;42.694;23.278;2023-02-08T11:35:11;12.60;;;6.73;;
6434;SDS011;3250;42.694;23.278;2023-02-08T11:37:52;9.93;;;5.83;;
6434;SDS011;3250;42.694;23.278;2023-02-08T11:40:41;11.27;;;6.53;;
6434;SDS011;3250;42.694;23.278;2023-02-08T11:43:17;12.13;;;6.67;;
6434;SDS011;3250;42.694;23.278;2023-02-08T11:45:45;11.50;;;5.87;;
6434;SDS011;3250;42.694;23.278;2023-02-08T11:48:22;11.27;;;7.33;;
6434;SDS011;3250;42.694;23.278;2023-02-08T11:50:54;11.73;;;6.97;;
6434;SDS011;3250;42.694;23.278;2023-02-08T11:53:27;13.23;;;7.10;;
6434;SDS011;3250;42.694;23.278;2023-02-08T11:56:01;14.40;;;7.27;;
6434;SDS011;3250;42.694;23.278;2023-02-08T11:58:27;15.27;;;6.87;;
6434;SDS011;3250;42.694;23.278;2023-02-08T12:01:08;12.67;;;6.97;;
6434;SDS011;3250;42.694;23.278;2023-02-08T12:03:42;11.30;;;5.90;;
6434;SDS011;3250;42.694;23.278;2023-02-08T12:11:45;14.63;;;6.90;;
6434;SDS011;3250;42.694;23.278;2023-02-08T12:14:22;10.80;;;6.53;;
6434;SDS011;3250;42.694;23.278;2023-02-08T12:30:51;12.60;;;6.20;;
6434;SDS011;3250;42.694;23.278;2023-02-08T12:38:47;8.10;;;4.43;;
6434;SDS011;3250;42.694;23.278;2023-02-08T12:44:39;6.97;;;4.30;;
6434;SDS011;3250;42.694;23.278;2023-02-08T12:52:50;7.00;;;4.47;;
6434;SDS011;3250;42.694;23.278;2023-02-08T12:55:25;7.47;;;4.17;;
6434;SDS011;3250;42.694;23.278;2023-02-08T12:57:58;8.77;;;3.80;;
6434;SDS011;3250;42.694;23.278;2023-02-08T13:00:28;6.27;;;3.70;;
6434;SDS011;3250;42.694;23.278;2023-02-08T13:05:34;9.83;;;4.57;;
6434;SDS011;3250;42.694;23.278;2023-02-08T13:11:10;7.93;;;4.73;;
6434;SDS011;3250;42.694;23.278;2023-02-08T13:13:42;6.50;;;4.27;;
6434;SDS011;3250;42.694;23.278;2023-02-08T13:16:16;7.40;;;3.93;;
6434;SDS011;3250;42.694;23.278;2023-02-08T13:21:45;12.20;;;3.87;;
6434;SDS011;3250;42.694;23.278;2023-02-08T13:27:05;7.67;;;4.17;;
6434;SDS011;3250;42.694;23.278;2023-02-08T13:29:45;6.70;;;3.80;;
6434;SDS011;3250;42.694;23.278;2023-02-08T13:32:20;8.83;;;4.07;;
6434;SDS011;3250;42.694;23.278;2023-02-08T13:35:00;7.00;;;3.93;;
6434;SDS011;3250;42.694;23.278;2023-02-08T13:37:31;7.80;;;4.20;;
6434;SDS011;3250;42.694;23.278;2023-02-08T13:40:05;6.77;;;3.87;;
6434;SDS011;3250;42.694;23.278;2023-02-08T13:42:49;6.37;;;3.57;;
6434;SDS011;3250;42.694;23.278;2023-02-08T13:45:22;8.87;;;4.70;;
6434;SDS011;3250;42.694;23.278;2023-02-08T13:50:51;8.97;;;5.17;;
6434;SDS011;3250;42.694;23.278;2023-02-08T13:53:18;6.17;;;4.23;;
6434;SDS011;3250;42.694;23.278;2023-02-08T13:56:12;17.23;;;6.03;;
6434;SDS011;3250;42.694;23.278;2023-02-08T14:06:32;8.70;;;4.63;;
6434;SDS011;3250;42.694;23.278;2023-02-08T14:11:59;8.43;;;5.07;;
6434;SDS011;3250;42.694;23.278;2023-02-08T14:14:33;16.27;;;5.60;;
6434;SDS011;3250;42.694;23.278;2023-02-08T14:19:29;8.60;;;5.03;;
6434;SDS011;3250;42.694;23.278;2023-02-08T14:24:38;7.40;;;4.60;;
6434;SDS011;3250;42.694;23.278;2023-02-08T14:27:27;9.50;;;5.20;;
6434;SDS011;3250;42.694;23.278;2023-02-08T14:30:05;8.63;;;4.20;;
6434;SDS011;3250;42.694;23.278;2023-02-08T14:32:36;7.27;;;4.67;;
6434;SDS011;3250;42.694;23.278;2023-02-08T14:35:05;8.57;;;4.40;;
6434;SDS011;3250;42.694;23.278;2023-02-08T14:37:34;10.77;;;4.97;;
6434;SDS011;3250;42.694;23.278;2023-02-08T14:43:00;16.83;;;5.20;;
6434;SDS011;3250;42.694;23.278;2023-02-08T14:51:30;7.80;;;4.33;;
6434;SDS011;3250;42.694;23.278;2023-02-08T14:53:47;11.40;;;5.63;;
6434;SDS011;3250;42.694;23.278;2023-02-08T14:56:24;12.17;;;5.10;;
6434;SDS011;3250;42.694;23.278;2023-02-08T14:59:06;5.83;;;3.67;;
6434;SDS011;3250;42.694;23.278;2023-02-08T15:01:47;9.05;;;5.97;;
6434;SDS011;3250;42.694;23.278;2023-02-08T15:04:17;10.57;;;5.40;;
6434;SDS011;3250;42.694;23.278;2023-02-08T15:09:25;9.53;;;4.93;;
6434;SDS011;3250;42.694;23.278;2023-02-08T15:12:03;12.77;;;5.65;;
6434;SDS011;3250;42.694;23.278;2023-02-08T15:14:35;10.32;;;5.82;;
6434;SDS011;3250;42.694;23.278;2023-02-08T15:17:03;11.60;;;6.05;;
6434;SDS011;3250;42.694;23.278;2023-02-08T15:19:33;10.93;;;5.57;;
6434;SDS011;3250;42.694;23.278;2023-02-08T15:22:17;11.53;;;5.90;;
6434;SDS011;3250;42.694;23.278;2023-02-08T15:24:49;10.32;;;5.72;;
6434;SDS011;3250;42.694;23.278;2023-02-08T15:27:20;10.73;;;6.13;;
6434;SDS011;3250;42.694;23.278;2023-02-08T15:29:47;11.90;;;5.67;;
6434;SDS011;3250;42.694;23.278;2023-02-08T15:32:13;9.83;;;5.93;;
6434;SDS011;3250;42.694;23.278;2023-02-08T15:34:42;11.07;;;4.70;;
6434;SDS011;3250;42.694;23.278;2023-02-08T15:37:18;10.75;;;5.53;;
6434;SDS011;3250;42.694;23.278;2023-02-08T15:39:44;9.48;;;5.47;;
6434;SDS011;3250;42.694;23.278;2023-02-08T15:42:14;9.60;;;5.63;;
6434;SDS011;3250;42.694;23.278;2023-02-08T15:44:41;10.80;;;5.97;;
6434;SDS011;3250;42.694;23.278;2023-02-08T15:47:08;11.02;;;5.57;;
6434;SDS011;3250;42.694;23.278;2023-02-08T15:49:42;10.77;;;5.57;;
6434;SDS011;3250;42.694;23.278;2023-02-08T15:52:14;9.82;;;5.82;;
6434;SDS011;3250;42.694;23.278;2023-02-08T15:54:43;12.27;;;6.40;;
6434;SDS011;3250;42.694;23.278;2023-02-08T15:59:50;11.27;;;6.28;;
6434;SDS011;3250;42.694;23.278;2023-02-08T16:02:21;12.00;;;6.90;;
6434;SDS011;3250;42.694;23.278;2023-02-08T16:04:51;10.60;;;6.00;;
6434;SDS011;3250;42.694;23.278;2023-02-08T16:09:51;10.47;;;6.00;;
6434;SDS011;3250;42.694;23.278;2023-02-08T16:12:19;11.45;;;6.82;;
6434;SDS011;3250;42.694;23.278;2023-02-08T16:14:46;10.68;;;5.50;;
6434;SDS011;3250;42.694;23.278;2023-02-08T16:22:55;12.48;;;5.78;;
6434;SDS011;3250;42.694;23.278;2023-02-08T16:27:48;8.83;;;4.90;;
6434;SDS011;3250;42.694;23.278;2023-02-08T16:30:17;12.13;;;5.83;;
6434;SDS011;3250;42.694;23.278;2023-02-08T16:32:44;8.50;;;5.30;;
6434;SDS011;3250;42.694;23.278;2023-02-08T16:35:17;9.40;;;5.68;;
6434;SDS011;3250;42.694;23.278;2023-02-08T16:37:58;10.40;;;5.80;;
6434;SDS011;3250;42.694;23.278;2023-02-08T16:48:36;10.75;;;6.13;;
6434;SDS011;3250;42.694;23.278;2023-02-08T16:51:05;9.43;;;6.13;;
6434;SDS011;3250;42.694;23.278;2023-02-08T16:53:34;14.13;;;6.57;;
6434;SDS011;3250;42.694;23.278;2023-02-08T16:55:59;11.82;;;6.88;;
6434;SDS011;3250;42.694;23.278;2023-02-08T16:58:25;14.25;;;6.40;;
6434;SDS011;3250;42.694;23.278;2023-02-08T17:00:52;12.10;;;6.25;;
6434;SDS011;3250;42.694;23.278;2023-02-08T17:03:18;13.93;;;6.95;;
6434;SDS011;3250;42.694;23.278;2023-02-08T17:05:44;9.87;;;6.00;;
6434;SDS011;3250;42.694;23.278;2023-02-08T17:08:12;12.00;;;6.30;;
6434;SDS011;3250;42.694;23.278;2023-02-08T17:10:39;16.83;;;6.97;;
6434;SDS011;3250;42.694;23.278;2023-02-08T17:13:08;16.73;;;7.95;;
6434;SDS011;3250;42.694;23.278;2023-02-08T17:15:35;13.10;;;7.50;;
6434;SDS011;3250;42.694;23.278;2023-02-08T17:18:01;14.80;;;7.43;;
6434;SDS011;3250;42.694;23.278;2023-02-08T17:20:28;17.20;;;8.60;;
6434;SDS011;3250;42.694;23.278;2023-02-08T17:22:58;9.67;;;5.60;;
6434;SDS011;3250;42.694;23.278;2023-02-08T17:25:25;13.60;;;7.17;;
6434;SDS011;3250;42.694;23.278;2023-02-08T17:27:59;15.07;;;7.07;;
6434;SDS011;3250;42.694;23.278;2023-02-08T17:30:31;13.10;;;7.38;;
6434;SDS011;3250;42.694;23.278;2023-02-08T17:33:01;15.95;;;8.02;;
6434;SDS011;3250;42.694;23.278;2023-02-08T17:35:35;14.05;;;7.32;;
6434;SDS011;3250;42.694;23.278;2023-02-08T17:38:02;14.95;;;8.05;;
6434;SDS011;3250;42.694;23.278;2023-02-08T17:40:32;14.43;;;7.43;;
6434;SDS011;3250;42.694;23.278;2023-02-08T17:42:59;14.90;;;7.60;;
6434;SDS011;3250;42.694;23.278;2023-02-08T17:45:25;13.82;;;7.72;;
6434;SDS011;3250;42.694;23.278;2023-02-08T17:47:52;13.48;;;7.28;;